createdAt,value
2022-09-28T00:01:31.585Z,9.20
2022-09-28T00:03:59.934Z,9.30
2022-09-28T00:06:29.972Z,9.20
2022-09-28T00:08:57.853Z,9.30
2022-09-28T00:11:28.317Z,9.30
2022-09-28T00:13:57.878Z,9.30
2022-09-28T00:16:28.793Z,9.30
2022-09-28T00:18:57.407Z,9.30
2022-09-28T00:21:29.835Z,9.30
2022-09-28T00:24:18.756Z,9.30
2022-09-28T00:26:54.259Z,9.30
2022-09-28T00:29:23.109Z,9.30
2022-09-28T00:31:53.001Z,9.30
2022-09-28T00:34:20.942Z,9.30
2022-09-28T00:36:48.483Z,9.20
2022-09-28T00:39:16.946Z,9.10
2022-09-28T00:41:46.603Z,9.00
2022-09-28T00:44:25.773Z,9.00
2022-09-28T00:47:07.884Z,8.90
2022-09-28T00:49:45.709Z,8.80
2022-09-28T00:52:18.447Z,8.70
2022-09-28T00:54:47.890Z,8.60
2022-09-28T00:57:15.922Z,8.60
2022-09-28T00:59:43.958Z,8.50
2022-09-28T01:02:10.931Z,8.50
2022-09-28T01:04:39.348Z,8.40
2022-09-28T01:07:08.974Z,8.40
2022-09-28T01:09:39.025Z,8.40
2022-09-28T01:12:07.849Z,8.40
2022-09-28T01:14:34.946Z,8.30
2022-09-28T01:17:08.515Z,8.30
2022-09-28T01:20:00.002Z,8.30
2022-09-28T01:22:34.787Z,8.30
2022-09-28T01:25:37.657Z,8.30
2022-09-28T01:28:13.721Z,8.20
2022-09-28T01:30:56.511Z,8.20
2022-09-28T01:33:28.060Z,8.20
2022-09-28T01:36:02.213Z,8.20
2022-09-28T01:38:48.149Z,8.30
2022-09-28T01:41:19.953Z,8.30
2022-09-28T01:43:51.459Z,8.40
2022-09-28T01:46:28.906Z,8.40
2022-09-28T01:48:58.313Z,8.40
2022-09-28T01:51:49.622Z,8.50
2022-09-28T01:54:44.750Z,8.50
2022-09-28T01:57:21.460Z,8.40
2022-09-28T02:00:00.555Z,8.50
2022-09-28T02:02:34.395Z,8.50
2022-09-28T02:05:27.853Z,8.50
2022-09-28T02:08:07.745Z,8.50
2022-09-28T02:10:43.667Z,8.50
2022-09-28T02:13:30.475Z,8.60
2022-09-28T02:16:05.227Z,8.50
2022-09-28T02:18:32.570Z,8.50
2022-09-28T02:21:22.974Z,8.50
2022-09-28T02:23:57.152Z,8.50
2022-09-28T02:26:31.099Z,8.50
2022-09-28T02:28:58.953Z,8.50
2022-09-28T02:31:27.101Z,8.50
2022-09-28T02:33:56.968Z,8.50
2022-09-28T02:36:25.914Z,8.60
2022-09-28T02:38:53.310Z,8.70
2022-09-28T02:41:26.070Z,8.70
2022-09-28T02:44:14.527Z,8.70
2022-09-28T02:46:59.354Z,8.70
2022-09-28T02:49:49.784Z,8.70
2022-09-28T02:52:50.493Z,8.70
2022-09-28T02:55:44.240Z,8.70
2022-09-28T02:58:30.242Z,8.70
2022-09-28T03:01:09.812Z,8.70
2022-09-28T03:03:53.299Z,8.80
2022-09-28T03:06:30.584Z,8.80
2022-09-28T03:09:26.347Z,8.80
2022-09-28T03:12:01.433Z,8.80
2022-09-28T03:14:28.311Z,8.80
2022-09-28T03:16:55.235Z,8.80
2022-09-28T03:19:26.894Z,8.80
2022-09-28T03:21:54.406Z,8.90
2022-09-28T03:24:21.617Z,8.90
2022-09-28T03:26:48.641Z,8.90
2022-09-28T03:29:18.432Z,8.90
2022-09-28T03:31:45.589Z,8.90
2022-09-28T03:34:12.619Z,8.90
2022-09-28T03:36:39.625Z,8.90
2022-09-28T03:39:06.490Z,8.90
2022-09-28T03:41:33.533Z,8.90
2022-09-28T03:44:01.933Z,8.90
2022-09-28T03:46:28.861Z,8.90
2022-09-28T03:48:58.338Z,8.90
2022-09-28T03:51:26.099Z,8.90
2022-09-28T03:53:52.868Z,8.90
2022-09-28T03:56:21.839Z,8.90
2022-09-28T03:58:48.883Z,8.90
2022-09-28T04:01:17.664Z,8.90
2022-09-28T04:03:45.520Z,8.80
2022-09-28T04:06:14.185Z,8.80
2022-09-28T04:08:41.168Z,8.80
2022-09-28T04:11:07.973Z,8.80
2022-09-28T04:13:34.784Z,8.80
2022-09-28T04:16:02.335Z,8.80
2022-09-28T04:18:29.704Z,8.80
2022-09-28T04:21:08.201Z,8.80
2022-09-28T04:23:36.660Z,8.80
2022-09-28T04:26:10.267Z,8.70
2022-09-28T04:28:55.476Z,8.80
2022-09-28T04:31:23.963Z,8.80
2022-09-28T04:33:51.160Z,8.70
2022-09-28T04:36:19.732Z,8.70
2022-09-28T04:38:53.130Z,8.70
2022-09-28T04:41:24.063Z,8.70
2022-09-28T04:43:51.235Z,8.80
2022-09-28T04:46:18.782Z,8.60
2022-09-28T04:48:46.004Z,8.60
2022-09-28T04:51:13.266Z,8.50
2022-09-28T04:53:41.198Z,8.50
2022-09-28T04:56:14.270Z,8.50
2022-09-28T04:58:42.070Z,8.50
2022-09-28T05:01:12.516Z,8.50
2022-09-28T05:03:39.769Z,8.50
2022-09-28T05:06:07.095Z,8.50
2022-09-28T05:08:35.385Z,8.50
2022-09-28T05:11:04.749Z,8.40
2022-09-28T05:13:32.595Z,8.40
2022-09-28T05:16:04.342Z,8.40
2022-09-28T05:18:32.626Z,8.40
2022-09-28T05:20:59.515Z,8.40
2022-09-28T05:23:26.300Z,8.40
2022-09-28T05:25:53.652Z,8.40
2022-09-28T05:28:26.174Z,8.40
2022-09-28T05:30:53.304Z,8.40
2022-09-28T05:33:20.543Z,8.30
2022-09-28T05:35:52.481Z,8.30
2022-09-28T05:38:23.957Z,8.20
2022-09-28T05:40:51.178Z,8.10
2022-09-28T05:43:18.250Z,8.10
2022-09-28T05:45:45.205Z,8.10
2022-09-28T05:48:12.166Z,8.10
2022-09-28T05:50:39.172Z,8.00
2022-09-28T05:53:10.207Z,8.00
2022-09-28T05:55:37.662Z,8.10
2022-09-28T05:58:06.867Z,8.00
2022-09-28T06:00:35.702Z,7.90
2022-09-28T06:03:08.967Z,7.90
2022-09-28T06:05:37.235Z,7.90
2022-09-28T06:08:05.455Z,7.70
2022-09-28T06:10:33.785Z,8.20
2022-09-28T06:13:01.254Z,8.00
2022-09-28T06:18:00.782Z,7.90
2022-09-28T06:20:30.393Z,7.90
2022-09-28T06:22:57.393Z,7.90
2022-09-28T06:25:25.179Z,7.90
2022-09-28T06:28:03.282Z,7.90
2022-09-28T06:30:33.224Z,8.00
2022-09-28T06:33:01.888Z,8.00
2022-09-28T06:35:30.781Z,8.00
2022-09-28T06:37:59.384Z,8.00
2022-09-28T06:40:27.717Z,8.00
2022-09-28T06:43:10.121Z,8.10
2022-09-28T06:45:38.525Z,8.10
2022-09-28T06:48:06.106Z,8.20
2022-09-28T06:50:41.203Z,8.30
2022-09-28T06:53:11.173Z,8.50
2022-09-28T06:55:42.948Z,8.60
2022-09-28T06:58:12.135Z,8.90
2022-09-28T07:00:40.495Z,9.10
2022-09-28T07:03:18.868Z,9.20
2022-09-28T07:05:51.393Z,9.30
2022-09-28T07:08:21.293Z,9.50
2022-09-28T07:10:50.137Z,9.70
2022-09-28T07:13:43.110Z,10.30
2022-09-28T07:16:04.881Z,9.90
2022-09-28T07:18:31.908Z,10.00
2022-09-28T07:21:09.182Z,10.00
2022-09-28T07:23:49.779Z,10.00
2022-09-28T07:26:23.056Z,10.10
2022-09-28T07:28:52.496Z,10.20
2022-09-28T07:31:19.212Z,10.30
2022-09-28T07:33:47.176Z,10.40
2022-09-28T07:36:14.445Z,10.50
2022-09-28T07:38:41.380Z,10.80
2022-09-28T07:41:11.822Z,10.90
2022-09-28T07:43:41.848Z,11.10
2022-09-28T07:46:11.803Z,11.20
2022-09-28T07:51:10.214Z,11.70
2022-09-28T07:53:38.403Z,12.00
2022-09-28T07:56:09.364Z,12.20
2022-09-28T07:58:38.334Z,12.30
2022-09-28T08:01:08.329Z,12.30
2022-09-28T08:03:35.657Z,12.40
2022-09-28T08:06:07.075Z,12.40
2022-09-28T08:08:35.056Z,12.30
2022-09-28T08:11:02.283Z,12.30
2022-09-28T08:13:29.592Z,12.10
2022-09-28T08:16:01.153Z,12.00
2022-09-28T08:18:27.912Z,12.00
2022-09-28T08:21:13.460Z,12.00
2022-09-28T08:23:40.176Z,12.00
2022-09-28T08:26:08.638Z,12.20
2022-09-28T08:28:36.969Z,12.60
2022-09-28T08:31:03.878Z,13.20
2022-09-28T08:33:30.927Z,13.80
2022-09-28T08:38:26.947Z,14.80
2022-09-28T08:41:15.573Z,15.20
2022-09-28T08:43:47.861Z,15.60
2022-09-28T08:46:17.809Z,15.80
2022-09-28T08:49:26.400Z,16.00
2022-09-28T08:52:10.040Z,16.30
2022-09-28T08:54:58.755Z,16.40
2022-09-28T08:57:34.035Z,16.70
2022-09-28T09:00:02.634Z,16.90
2022-09-28T09:02:33.779Z,16.90
2022-09-28T09:05:03.982Z,17.30
2022-09-28T09:07:41.048Z,17.50
2022-09-28T09:10:33.956Z,17.60
2022-09-28T09:13:31.416Z,17.80
2022-09-28T09:16:24.361Z,17.90
2022-09-28T09:19:24.974Z,18.10
2022-09-28T09:22:01.529Z,18.10
2022-09-28T09:24:39.205Z,17.80
2022-09-28T09:27:11.739Z,17.30
2022-09-28T09:30:25.907Z,17.20
2022-09-28T09:33:04.843Z,17.20
2022-09-28T09:35:58.837Z,17.30
2022-09-28T09:38:36.184Z,17.40
2022-09-28T09:41:16.336Z,17.20
2022-09-28T09:44:11.678Z,17.10
2022-09-28T09:46:41.780Z,16.90
2022-09-28T09:49:36.229Z,16.60
2022-09-28T09:52:21.072Z,16.40
2022-09-28T09:55:02.728Z,16.20
2022-09-28T09:57:40.076Z,16.20
2022-09-28T10:00:14.487Z,16.20
2022-09-28T10:02:43.776Z,16.30
2022-09-28T10:05:13.366Z,16.50
2022-09-28T10:07:52.039Z,16.50
2022-09-28T10:10:36.638Z,16.50
2022-09-28T10:13:04.262Z,16.50
2022-09-28T10:15:35.358Z,16.40
2022-09-28T10:18:06.829Z,16.30
2022-09-28T10:20:39.948Z,16.20
2022-09-28T10:23:12.933Z,16.10
2022-09-28T10:25:40.681Z,15.90
2022-09-28T10:28:14.243Z,15.80
2022-09-28T10:30:44.390Z,15.70
2022-09-28T10:33:32.686Z,15.60
2022-09-28T10:36:01.156Z,15.60
2022-09-28T10:38:30.210Z,15.50
2022-09-28T10:41:01.927Z,15.40
2022-09-28T10:43:30.792Z,15.50
2022-09-28T10:46:23.908Z,15.60
2022-09-28T10:49:06.379Z,15.80
2022-09-28T10:51:46.687Z,15.80
2022-09-28T10:54:24.809Z,15.70
2022-09-28T10:56:54.001Z,15.70
2022-09-28T10:59:30.564Z,15.70
2022-09-28T11:02:01.513Z,15.80
2022-09-28T11:04:33.619Z,15.90
2022-09-28T11:07:02.208Z,15.80
2022-09-28T11:09:31.588Z,15.70
2022-09-28T11:11:59.827Z,15.70
2022-09-28T11:14:42.532Z,15.80
2022-09-28T11:17:24.428Z,15.90
2022-09-28T11:19:52.298Z,16.10
2022-09-28T11:22:44.754Z,16.20
2022-09-28T11:25:17.472Z,16.30
2022-09-28T11:27:53.100Z,16.20
2022-09-28T11:30:25.835Z,16.20
2022-09-28T11:32:55.868Z,16.20
2022-09-28T11:36:07.712Z,16.20
2022-09-28T11:39:09.582Z,16.40
2022-09-28T11:41:52.780Z,16.50
2022-09-28T11:44:47.964Z,16.90
2022-09-28T11:47:41.782Z,17.30
2022-09-28T11:50:24.071Z,17.60
2022-09-28T11:53:12.765Z,17.70
2022-09-28T11:55:47.167Z,17.70
2022-09-28T11:58:32.579Z,17.50
2022-09-28T12:01:38.609Z,17.40
2022-09-28T12:04:26.341Z,17.40
2022-09-28T12:06:59.938Z,17.30
2022-09-28T12:09:43.464Z,17.20
2022-09-28T12:12:37.255Z,17.20
2022-09-28T12:15:16.782Z,17.10
2022-09-28T12:17:49.820Z,17.00
2022-09-28T12:20:22.288Z,17.20
2022-09-28T12:23:03.949Z,17.30
2022-09-28T12:25:40.626Z,17.40
2022-09-28T12:28:18.408Z,17.30
2022-09-28T12:30:47.670Z,17.50
2022-09-28T12:33:15.484Z,17.50
2022-09-28T12:35:54.441Z,17.70
2022-09-28T12:38:34.172Z,17.90
2022-09-28T12:41:06.854Z,18.10
2022-09-28T12:44:26.267Z,18.20
2022-09-28T12:47:20.693Z,18.20
2022-09-28T12:50:37.964Z,18.30
2022-09-28T12:53:33.901Z,18.60
2022-09-28T12:56:22.838Z,18.80
2022-09-28T12:59:20.968Z,19.10
2022-09-28T13:02:12.655Z,19.40
2022-09-28T13:05:00.433Z,19.30
2022-09-28T13:07:55.908Z,19.20
2022-09-28T13:10:51.256Z,19.10
2022-09-28T13:13:27.673Z,18.80
2022-09-28T13:16:17.676Z,18.50
2022-09-28T13:19:25.697Z,18.20
2022-09-28T13:22:17.130Z,17.80
2022-09-28T13:24:46.478Z,17.50
2022-09-28T13:27:23.465Z,17.20
2022-09-28T13:29:55.713Z,17.00
2022-09-28T13:32:26.513Z,16.90
2022-09-28T13:34:54.798Z,16.80
2022-09-28T13:37:25.847Z,16.80
2022-09-28T13:39:56.456Z,16.80
2022-09-28T13:42:25.048Z,16.90
2022-09-28T13:45:00.273Z,17.00
2022-09-28T13:48:05.473Z,17.10
2022-09-28T13:51:07.627Z,17.10
2022-09-28T13:54:02.075Z,17.10
2022-09-28T13:56:51.652Z,17.10
2022-09-28T13:59:30.276Z,17.10
2022-09-28T14:02:31.253Z,17.00
2022-09-28T14:05:05.045Z,16.80
2022-09-28T14:07:36.709Z,16.80
2022-09-28T14:10:22.274Z,16.70
2022-09-28T14:12:51.602Z,16.70
2022-09-28T14:15:44.033Z,16.70
2022-09-28T14:18:23.492Z,16.70
2022-09-28T14:21:01.967Z,16.70
2022-09-28T14:23:50.664Z,16.70
2022-09-28T14:26:36.214Z,16.70
2022-09-28T14:29:29.782Z,16.80
2022-09-28T14:31:58.503Z,16.80
2022-09-28T14:34:37.906Z,16.90
2022-09-28T14:37:37.041Z,17.00
2022-09-28T14:40:49.569Z,17.00
2022-09-28T14:43:34.842Z,17.00
2022-09-28T14:46:13.460Z,16.90
2022-09-28T14:48:50.539Z,16.80
2022-09-28T14:51:40.351Z,16.70
2022-09-28T14:54:12.778Z,16.60
2022-09-28T14:56:57.044Z,16.50
2022-09-28T14:59:36.250Z,16.40
2022-09-28T15:02:19.095Z,16.20
2022-09-28T15:05:02.612Z,16.10
2022-09-28T15:07:46.112Z,16.00
2022-09-28T15:10:31.372Z,15.80
2022-09-28T15:13:03.592Z,15.70
2022-09-28T15:15:40.744Z,15.60
2022-09-28T15:18:28.532Z,15.40
2022-09-28T15:20:56.327Z,15.40
2022-09-28T15:26:10.446Z,15.10
2022-09-28T15:28:43.522Z,15.00
2022-09-28T15:31:18.527Z,14.90
2022-09-28T15:34:04.008Z,15.00
2022-09-28T15:36:39.264Z,14.90
2022-09-28T15:39:07.351Z,14.80
2022-09-28T15:41:35.660Z,14.80
2022-09-28T15:44:32.420Z,14.70
2022-09-28T15:47:09.939Z,14.70
2022-09-28T15:49:41.757Z,14.70
2022-09-28T15:52:24.754Z,14.60
2022-09-28T15:54:53.047Z,14.60
2022-09-28T15:57:38.412Z,14.60
2022-09-28T16:00:23.450Z,14.60
2022-09-28T16:03:00.943Z,14.60
2022-09-28T16:05:35.858Z,14.60
2022-09-28T16:08:04.869Z,14.50
2022-09-28T16:10:37.037Z,14.50
2022-09-28T16:13:14.326Z,14.50
2022-09-28T16:15:41.500Z,14.40
2022-09-28T16:18:17.976Z,14.40
2022-09-28T16:20:47.932Z,14.30
2022-09-28T16:23:19.322Z,14.20
2022-09-28T16:26:08.457Z,14.00
2022-09-28T16:28:46.803Z,14.00
2022-09-28T16:31:13.541Z,13.80
2022-09-28T16:34:01.810Z,14.40
2022-09-28T16:36:39.559Z,13.70
2022-09-28T16:39:06.229Z,13.60
2022-09-28T16:41:33.063Z,13.50
2022-09-28T16:44:02.210Z,13.50
2022-09-28T16:46:37.683Z,13.50
2022-09-28T16:49:06.030Z,13.30
2022-09-28T16:54:41.654Z,13.20
2022-09-28T16:57:12.074Z,13.10
2022-09-28T16:59:39.096Z,13.10
2022-09-28T17:05:10.327Z,12.90
2022-09-28T17:07:37.138Z,12.80
2022-09-28T17:10:56.191Z,12.80
2022-09-28T17:13:33.439Z,12.70
2022-09-28T17:16:08.423Z,12.60
2022-09-28T17:18:37.840Z,12.60
2022-09-28T17:21:06.433Z,12.50
2022-09-28T17:23:33.476Z,12.50
2022-09-28T17:26:02.216Z,12.40
2022-09-28T17:30:59.435Z,12.30
2022-09-28T17:33:26.208Z,12.30
2022-09-28T17:35:57.447Z,12.20
2022-09-28T17:38:24.612Z,12.20
2022-09-28T17:40:51.331Z,12.10
2022-09-28T17:43:18.242Z,12.00
2022-09-28T17:45:46.994Z,11.90
2022-09-28T17:48:16.295Z,11.90
2022-09-28T17:50:46.434Z,11.90
2022-09-28T17:53:14.013Z,11.90
2022-09-28T17:55:43.045Z,11.90
2022-09-28T17:58:18.802Z,11.90
2022-09-28T18:00:51.221Z,11.90
2022-09-28T18:03:23.831Z,12.50
2022-09-28T18:05:58.980Z,11.90
2022-09-28T18:08:25.841Z,11.70
2022-09-28T18:10:52.689Z,11.80
2022-09-28T18:13:19.424Z,11.60
2022-09-28T18:15:46.589Z,12.10
2022-09-28T18:20:45.461Z,11.40
2022-09-28T18:23:12.434Z,11.40
2022-09-28T18:25:44.107Z,11.30
2022-09-28T18:28:12.288Z,11.30
2022-09-28T18:30:41.132Z,11.30
2022-09-28T18:33:08.722Z,11.30
2022-09-28T18:35:35.692Z,11.20
2022-09-28T18:38:05.360Z,11.20
2022-09-28T18:40:34.367Z,11.20
2022-09-28T18:43:01.200Z,11.10
2022-09-28T18:45:28.167Z,11.10
2022-09-28T18:47:55.031Z,11.10
2022-09-28T18:50:22.096Z,11.10
2022-09-28T18:52:48.900Z,11.00
2022-09-28T18:55:16.476Z,11.00
2022-09-28T18:57:44.225Z,11.00
2022-09-28T19:00:12.762Z,10.90
2022-09-28T19:02:39.702Z,10.90
2022-09-28T19:05:07.263Z,10.90
2022-09-28T19:07:34.285Z,10.70
2022-09-28T19:10:01.204Z,10.70
2022-09-28T19:12:28.036Z,10.60
2022-09-28T19:14:55.242Z,10.60
2022-09-28T19:17:22.100Z,10.60
2022-09-28T19:19:48.906Z,10.60
2022-09-28T19:22:15.721Z,10.50
2022-09-28T19:24:42.413Z,10.50
2022-09-28T19:27:09.312Z,10.50
2022-09-28T19:29:36.127Z,10.50
2022-09-28T19:32:03.088Z,10.50
2022-09-28T19:37:10.941Z,10.50
2022-09-28T19:39:37.893Z,10.40
2022-09-28T19:42:04.919Z,10.40
2022-09-28T19:44:33.700Z,10.40
2022-09-28T19:47:10.042Z,10.40
2022-09-28T19:49:39.057Z,10.30
2022-09-28T19:52:15.884Z,10.20
2022-09-28T19:54:45.445Z,10.20
2022-09-28T19:57:14.534Z,10.20
2022-09-28T19:59:41.657Z,10.10
2022-09-28T20:02:11.347Z,10.00
2022-09-28T20:04:38.397Z,10.00
2022-09-28T20:07:05.626Z,9.80
2022-09-28T20:09:32.957Z,9.80
2022-09-28T20:12:00.155Z,9.80
2022-09-28T20:14:32.135Z,9.80
2022-09-28T20:17:01.096Z,9.80
2022-09-28T20:19:28.014Z,9.80
2022-09-28T20:21:58.746Z,9.70
2022-09-28T20:24:25.792Z,9.70
2022-09-28T20:26:52.764Z,9.60
2022-09-28T20:29:19.811Z,9.60
2022-09-28T20:31:46.909Z,9.60
2022-09-28T20:34:13.899Z,9.50
2022-09-28T20:36:42.570Z,9.50
2022-09-28T20:39:10.633Z,9.50
2022-09-28T20:41:37.603Z,9.50
2022-09-28T20:44:06.657Z,9.40
2022-09-28T20:46:38.348Z,9.40
2022-09-28T20:49:07.126Z,9.40
2022-09-28T20:51:36.570Z,9.60
2022-09-28T20:54:04.673Z,9.30
2022-09-28T20:56:39.009Z,8.90
2022-09-28T20:59:11.779Z,9.10
2022-09-28T21:01:39.410Z,9.10
2022-09-28T21:04:08.107Z,9.10
2022-09-28T21:06:40.155Z,9.10
2022-09-28T21:09:09.084Z,9.00
2022-09-28T21:11:36.216Z,9.00
2022-09-28T21:14:05.035Z,9.00
2022-09-28T21:16:33.226Z,9.00
2022-09-28T21:19:00.288Z,8.90
2022-09-28T21:21:28.255Z,8.90
2022-09-28T21:23:56.186Z,8.70
2022-09-28T21:26:25.150Z,8.90
2022-09-28T21:29:01.546Z,8.90
2022-09-28T21:31:32.782Z,8.90
2022-09-28T21:34:00.035Z,8.80
2022-09-28T21:36:27.031Z,8.80
2022-09-28T21:38:55.577Z,8.80
2022-09-28T21:41:23.274Z,8.70
2022-09-28T21:43:50.236Z,8.80
2022-09-28T21:46:17.722Z,8.70
2022-09-28T21:48:44.783Z,8.70
2022-09-28T21:51:14.715Z,8.60
2022-09-28T21:53:41.591Z,8.60
2022-09-28T21:56:11.156Z,8.60
2022-09-28T21:58:38.248Z,8.60
2022-09-28T22:01:16.628Z,8.60
2022-09-28T22:03:45.207Z,8.60
2022-09-28T22:06:12.357Z,8.50
2022-09-28T22:08:39.870Z,8.50
2022-09-28T22:11:13.057Z,8.50
2022-09-28T22:13:49.973Z,8.50
2022-09-28T22:16:19.518Z,8.40
2022-09-28T22:18:47.278Z,8.40
2022-09-28T22:21:19.881Z,8.90
2022-09-28T22:23:47.153Z,8.40
2022-09-28T22:26:25.269Z,8.40
2022-09-28T22:28:57.868Z,8.30
2022-09-28T22:31:30.540Z,8.30
2022-09-28T22:33:58.423Z,8.20
2022-09-28T22:36:26.083Z,8.10
2022-09-28T22:38:54.915Z,8.00
2022-09-28T22:41:22.147Z,8.00
2022-09-28T22:43:50.306Z,8.00
2022-09-28T22:46:20.702Z,7.90
2022-09-28T22:48:49.590Z,7.90
2022-09-28T22:51:17.108Z,7.90
2022-09-28T22:53:44.171Z,7.80
2022-09-28T22:56:15.974Z,7.80
2022-09-28T22:58:45.164Z,7.90
2022-09-28T23:01:14.462Z,7.80
2022-09-28T23:03:42.495Z,7.80
2022-09-28T23:06:10.232Z,7.70
2022-09-28T23:08:37.326Z,7.70
2022-09-28T23:11:05.133Z,7.70
2022-09-28T23:13:32.140Z,7.60
2022-09-28T23:16:07.975Z,7.60
2022-09-28T23:18:38.643Z,7.60
2022-09-28T23:21:12.568Z,7.60
2022-09-28T23:23:39.483Z,7.50
2022-09-28T23:26:21.533Z,7.50
2022-09-28T23:28:48.442Z,7.50
2022-09-28T23:31:23.604Z,7.50
2022-09-28T23:33:50.944Z,7.40
2022-09-28T23:36:18.894Z,7.30
2022-09-28T23:38:46.278Z,7.30
2022-09-28T23:41:13.432Z,7.20
2022-09-28T23:43:40.494Z,7.20
2022-09-28T23:46:07.462Z,7.20
2022-09-28T23:48:34.679Z,7.20
2022-09-28T23:51:02.222Z,7.10
2022-09-28T23:53:29.512Z,7.20
2022-09-28T23:55:56.311Z,7.10
2022-09-28T23:58:23.152Z,7.10
